CheckWX is a tool to help pilots better visualize weather data.  It is not intended as a substitute for an official pre-flight weather briefing.

06:39:08 UTC

KSCK TAF
Stockton Metropolitan Airport
Stockton, California, USA
KSCK 260520Z 2606/2706 25011KT P6SM FEW250 FM261700 28008KT P6SM FEW250 FM262100 29014G20KT P6SM FEW250 FM270300 26014KT P6SM SKC

Jun-26@
06:00 UTC

Jun-26 @ 06:00 UTC

Jun-26@
17:00 UTC

Jun-26 @ 17:00 UTC

KSCK 260520Z 2606/2706 25011KT P6SM FEW250
Wind
  • 250° at 11 KTS
Cloud Levels
  • Few at 25,000' AGL

Jun-26@
17:00 UTC

Jun-26 @ 17:00 UTC

Jun-26@
21:00 UTC

Jun-26 @ 21:00 UTC

FM261700 28008KT P6SM FEW250

From

From Standard forecast or significant change

Wind
  • 280° at 8 KTS
Cloud Levels
  • Few at 25,000' AGL

Jun-26@
21:00 UTC

Jun-26 @ 21:00 UTC

Jun-27@
03:00 UTC

Jun-27 @ 03:00 UTC

FM262100 29014G20KT P6SM FEW250

From

From Standard forecast or significant change

Wind
  • 290° at 14 KTS
  • {Gusting to 20 KTS
Cloud Levels
  • Few at 25,000' AGL

Jun-27@
03:00 UTC

Jun-27 @ 03:00 UTC

Jun-27@
06:00 UTC

Jun-27 @ 06:00 UTC

FM270300 26014KT P6SM SKC

From

From Standard forecast or significant change

Wind
  • 260° at 14 KTS
Cloud Levels
  • Clear skies